createdAt,value
2023-03-04T00:02:10.064Z,87.48
2023-03-04T00:05:13.106Z,87.26
2023-03-04T00:08:16.150Z,87.12
2023-03-04T00:11:19.239Z,87.42
2023-03-04T00:14:22.220Z,87.09
2023-03-04T00:17:25.402Z,87.10
2023-03-04T00:20:28.369Z,86.77
2023-03-04T00:23:31.629Z,86.95
2023-03-04T00:26:35.309Z,87.04
2023-03-04T00:29:39.046Z,87.02
2023-03-04T00:32:42.439Z,86.76
2023-03-04T00:35:45.907Z,86.65
2023-03-04T00:38:49.070Z,86.93
2023-03-04T00:41:52.679Z,86.70
2023-03-04T00:44:56.365Z,86.78
2023-03-04T00:47:59.717Z,86.35
2023-03-04T00:51:02.820Z,86.38
2023-03-04T00:54:05.884Z,86.31
2023-03-04T00:57:09.228Z,86.32
2023-03-04T01:00:13.386Z,86.36
2023-03-04T01:03:17.035Z,86.41
2023-03-04T01:06:20.488Z,86.51
2023-03-04T01:09:23.884Z,86.36
2023-03-04T01:12:26.941Z,86.26
2023-03-04T01:15:30.087Z,86.17
2023-03-04T01:18:33.781Z,86.07
2023-03-04T01:21:37.505Z,86.29
2023-03-04T01:24:40.636Z,86.85
2023-03-04T01:27:44.387Z,86.87
2023-03-04T01:30:48.668Z,86.48
2023-03-04T01:33:51.737Z,86.39
2023-03-04T01:36:54.820Z,86.44
2023-03-04T01:40:01.384Z,86.45
2023-03-04T01:43:05.935Z,86.29
2023-03-04T01:46:13.485Z,86.19
2023-03-04T01:49:17.265Z,86.18
2023-03-04T01:52:20.973Z,86.26
2023-03-04T01:55:25.511Z,86.18
2023-03-04T01:58:33.083Z,86.21
2023-03-04T02:01:37.866Z,85.87
2023-03-04T02:04:42.663Z,86.18
2023-03-04T02:07:45.926Z,86.19
2023-03-04T02:10:49.387Z,86.54
2023-03-04T02:13:53.168Z,86.30
2023-03-04T02:16:56.673Z,86.41
2023-03-04T02:20:31.185Z,86.67
2023-03-04T02:23:59.263Z,86.91
2023-03-04T02:27:02.446Z,88.34
2023-03-04T02:30:06.928Z,87.47
2023-03-04T02:33:20.953Z,87.75
2023-03-04T02:36:24.740Z,87.35
2023-03-04T02:39:39.789Z,87.00
2023-03-04T02:42:45.690Z,87.29
2023-03-04T02:45:50.665Z,86.89
2023-03-04T02:48:54.674Z,87.06
2023-03-04T02:52:10.106Z,87.15
2023-03-04T02:55:13.579Z,87.48
2023-03-04T02:58:17.061Z,87.33
2023-03-04T03:01:20.823Z,87.22
2023-03-04T03:04:25.745Z,87.05
2023-03-04T03:07:28.990Z,87.36
2023-03-04T03:10:32.664Z,86.97
2023-03-04T03:13:35.618Z,86.97
2023-03-04T03:16:38.729Z,87.20
2023-03-04T03:19:41.874Z,87.30
2023-03-04T03:22:45.177Z,87.61
2023-03-04T03:25:48.727Z,88.46
2023-03-04T03:28:51.870Z,87.43
2023-03-04T03:31:57.037Z,88.11
2023-03-04T03:35:00.141Z,88.20
2023-03-04T03:38:03.123Z,88.14
2023-03-04T03:41:06.274Z,87.70
2023-03-04T03:44:09.385Z,87.53
2023-03-04T03:47:12.950Z,87.56
2023-03-04T03:50:16.419Z,87.55
2023-03-04T03:53:20.402Z,87.97
2023-03-04T03:56:23.418Z,87.40
2023-03-04T03:59:26.561Z,87.24
2023-03-04T04:02:29.813Z,87.09
2023-03-04T04:05:33.034Z,87.36
2023-03-04T04:08:36.086Z,87.00
2023-03-04T04:11:39.330Z,87.69
2023-03-04T04:14:43.008Z,87.45
2023-03-04T04:17:46.149Z,87.95
2023-03-04T04:20:49.448Z,87.90
2023-03-04T04:23:52.512Z,88.67
2023-03-04T04:26:55.586Z,88.13
2023-03-04T04:29:59.083Z,87.96
2023-03-04T04:33:04.938Z,87.67
2023-03-04T04:36:13.630Z,89.62
2023-03-04T04:39:16.790Z,92.16
2023-03-04T04:42:20.024Z,91.42
2023-03-04T04:45:25.036Z,90.29
2023-03-04T04:48:29.073Z,90.10
2023-03-04T04:51:33.101Z,89.59
2023-03-04T04:54:36.183Z,90.52
2023-03-04T04:57:39.390Z,90.75
2023-03-04T05:00:42.585Z,90.75
2023-03-04T05:03:45.750Z,90.66
2023-03-04T05:06:48.805Z,90.64
2023-03-04T05:09:51.798Z,90.79
2023-03-04T05:12:54.896Z,90.90
2023-03-04T05:15:58.519Z,91.22
2023-03-04T05:19:01.609Z,91.36
2023-03-04T05:22:04.963Z,92.05
2023-03-04T05:25:09.494Z,91.43
2023-03-04T05:28:13.252Z,91.87
2023-03-04T05:31:18.395Z,91.95
2023-03-04T05:34:21.644Z,91.89
2023-03-04T05:37:24.789Z,90.85
2023-03-04T05:40:27.852Z,90.76
2023-03-04T05:43:35.213Z,90.95
2023-03-04T05:46:38.974Z,91.26
2023-03-04T05:49:42.813Z,91.14
2023-03-04T05:52:46.060Z,90.57
2023-03-04T05:55:49.732Z,90.71
2023-03-04T05:58:52.913Z,90.47
2023-03-04T06:01:56.118Z,90.69
2023-03-04T06:04:59.414Z,90.78
2023-03-04T06:08:03.120Z,90.32
2023-03-04T06:11:06.830Z,90.22
2023-03-04T06:14:10.129Z,90.28
2023-03-04T06:17:13.823Z,90.36
2023-03-04T06:20:16.906Z,90.07
2023-03-04T06:23:20.021Z,89.85
2023-03-04T06:26:22.984Z,89.89
2023-03-04T06:29:26.355Z,89.94
2023-03-04T06:32:29.949Z,89.74
2023-03-04T06:35:33.730Z,89.62
2023-03-04T06:38:36.874Z,89.59
2023-03-04T06:41:41.141Z,89.25
2023-03-04T06:44:44.357Z,89.15
2023-03-04T06:47:47.560Z,89.37
2023-03-04T06:50:50.703Z,89.10
2023-03-04T06:53:54.235Z,89.31
2023-03-04T06:56:57.593Z,89.03
2023-03-04T07:00:00.727Z,88.94
2023-03-04T07:03:04.011Z,88.82
2023-03-04T07:06:09.745Z,88.59
2023-03-04T07:09:13.304Z,88.38
2023-03-04T07:12:16.855Z,88.16
2023-03-04T07:15:19.903Z,87.95
2023-03-04T07:18:22.799Z,87.58
2023-03-04T07:21:25.956Z,87.21
2023-03-04T07:24:29.203Z,87.44
2023-03-04T07:27:32.153Z,87.35
2023-03-04T07:30:35.109Z,87.37
2023-03-04T07:33:38.442Z,87.02
2023-03-04T07:36:42.351Z,86.60
2023-03-04T07:39:45.950Z,86.42
2023-03-04T07:42:56.060Z,86.58
2023-03-04T07:46:01.730Z,86.62
2023-03-04T07:49:04.795Z,86.04
2023-03-04T07:52:08.943Z,85.22
2023-03-04T07:55:14.541Z,85.01
2023-03-04T07:58:20.149Z,84.94
2023-03-04T08:01:28.675Z,84.80
2023-03-04T08:04:32.348Z,85.33
2023-03-04T08:07:35.907Z,84.56
2023-03-04T08:10:39.972Z,83.80
2023-03-04T08:13:43.454Z,83.58
2023-03-04T08:16:46.492Z,83.81
2023-03-04T08:19:49.457Z,82.87
2023-03-04T08:22:52.570Z,81.95
2023-03-04T08:25:55.678Z,82.67
2023-03-04T08:29:00.978Z,82.58
2023-03-04T08:32:04.565Z,82.10
2023-03-04T08:35:08.026Z,82.86
2023-03-04T08:38:11.207Z,81.60
2023-03-04T08:41:15.740Z,80.76
2023-03-04T08:44:19.448Z,80.85
2023-03-04T08:47:22.776Z,81.06
2023-03-04T08:50:27.758Z,81.14
2023-03-04T08:53:31.167Z,80.73
2023-03-04T08:56:34.488Z,80.32
2023-03-04T08:59:38.538Z,81.20
2023-03-04T09:02:42.080Z,81.14
2023-03-04T09:05:48.291Z,80.87
2023-03-04T09:08:58.053Z,80.36
2023-03-04T09:12:02.176Z,80.00
2023-03-04T09:15:11.625Z,80.37
2023-03-04T09:18:18.206Z,79.97
2023-03-04T09:21:21.833Z,80.36
2023-03-04T09:24:26.729Z,80.23
2023-03-04T09:27:30.496Z,80.53
2023-03-04T09:30:35.221Z,80.09
2023-03-04T09:33:38.986Z,80.05
2023-03-04T09:36:42.022Z,80.76
2023-03-04T09:40:05.057Z,80.59
2023-03-04T09:43:30.391Z,80.47
2023-03-04T09:46:40.628Z,80.67
2023-03-04T09:50:02.873Z,80.30
2023-03-04T09:57:26.214Z,81.04
2023-03-04T10:00:47.139Z,80.46
2023-03-04T10:03:55.919Z,79.26
2023-03-04T10:07:06.484Z,79.28
2023-03-04T10:10:53.299Z,79.10
2023-03-04T10:14:51.017Z,76.57
2023-03-04T10:18:07.171Z,74.29
2023-03-04T10:21:35.420Z,72.93
2023-03-04T10:24:39.449Z,72.93
2023-03-04T10:27:44.704Z,71.42
2023-03-04T10:31:12.295Z,70.93
2023-03-04T10:34:17.626Z,70.00
2023-03-04T10:37:20.976Z,69.53
2023-03-04T10:40:26.370Z,69.67
2023-03-04T10:43:30.513Z,69.75
2023-03-04T10:46:33.549Z,69.03
2023-03-04T10:49:52.684Z,69.43
2023-03-04T10:52:57.628Z,69.32
2023-03-04T10:56:01.060Z,68.93
2023-03-04T10:59:40.660Z,69.84
2023-03-04T11:02:45.855Z,68.37
2023-03-04T11:05:51.832Z,68.02
2023-03-04T11:08:59.949Z,66.92
2023-03-04T11:12:30.175Z,68.39
2023-03-04T11:15:51.613Z,68.30
2023-03-04T11:19:00.708Z,66.91
2023-03-04T11:22:04.528Z,67.18
2023-03-04T11:25:26.594Z,66.31
2023-03-04T11:29:08.861Z,66.38
2023-03-04T11:32:24.157Z,67.63
2023-03-04T11:35:35.618Z,67.02
2023-03-04T11:38:44.692Z,67.83
2023-03-04T11:42:16.820Z,67.18
2023-03-04T11:45:43.767Z,68.34
2023-03-04T11:49:18.594Z,66.50
2023-03-04T11:52:39.818Z,67.31
2023-03-04T11:56:04.619Z,67.22
2023-03-04T11:59:16.426Z,66.64
2023-03-04T12:02:29.973Z,67.04
2023-03-04T12:05:44.876Z,67.18
2023-03-04T12:09:24.508Z,66.39
2023-03-04T12:12:35.557Z,66.52
2023-03-04T12:16:11.440Z,66.09
2023-03-04T12:19:35.055Z,66.19
2023-03-04T12:22:43.769Z,65.60
2023-03-04T12:26:11.732Z,64.20
2023-03-04T12:29:49.833Z,64.80
2023-03-04T12:33:10.350Z,63.20
2023-03-04T12:36:41.656Z,65.67
2023-03-04T12:43:49.760Z,62.81
2023-03-04T12:47:49.636Z,62.00
2023-03-04T12:52:19.545Z,63.35
2023-03-04T12:56:12.565Z,61.83
2023-03-04T12:59:25.297Z,61.90
2023-03-04T13:03:18.225Z,62.35
2023-03-04T13:06:48.202Z,62.55
2023-03-04T13:10:11.061Z,62.70
2023-03-04T13:13:51.798Z,63.67
2023-03-04T13:18:17.026Z,62.65
2023-03-04T13:22:03.853Z,63.86
2023-03-04T13:25:56.799Z,63.73
2023-03-04T13:33:21.793Z,64.43
2023-03-04T13:36:56.541Z,65.11
2023-03-04T13:40:23.723Z,64.75
2023-03-04T13:43:52.774Z,64.72
2023-03-04T13:47:10.837Z,65.15
2023-03-04T13:51:00.756Z,65.73
2023-03-04T13:54:53.779Z,65.98
2023-03-04T13:58:43.738Z,66.50
2023-03-04T14:02:39.764Z,66.54
2023-03-04T14:07:09.328Z,67.49
2023-03-04T14:13:47.340Z,67.94
2023-03-04T14:17:51.356Z,68.43
2023-03-04T14:21:13.313Z,69.11
2023-03-04T14:25:28.237Z,69.79
2023-03-04T14:29:06.294Z,69.93
2023-03-04T14:33:12.213Z,70.23
2023-03-04T14:37:05.333Z,70.63
2023-03-04T14:41:23.218Z,71.02
2023-03-04T14:48:57.085Z,71.49
2023-03-04T14:53:01.407Z,71.60
2023-03-04T15:04:14.435Z,71.85
2023-03-04T15:07:50.555Z,71.82
2023-03-04T15:11:48.008Z,71.51
2023-03-04T15:15:56.754Z,71.57
2023-03-04T15:19:45.559Z,72.04
2023-03-04T15:27:15.251Z,72.57
2023-03-04T15:30:47.356Z,73.26
2023-03-04T15:37:49.219Z,73.24
2023-03-04T15:41:17.211Z,73.06
2023-03-04T15:44:50.340Z,73.50
2023-03-04T15:48:24.847Z,73.37
2023-03-04T15:55:45.031Z,72.75
2023-03-04T16:03:12.972Z,72.85
2023-03-04T16:06:46.352Z,72.72
2023-03-04T16:10:55.211Z,72.48
2023-03-04T16:14:30.223Z,72.53
2023-03-04T16:18:24.234Z,72.70
2023-03-04T16:22:18.189Z,72.33
2023-03-04T16:25:58.392Z,72.40
2023-03-04T16:29:35.181Z,72.92
2023-03-04T16:33:10.177Z,72.75
2023-03-04T16:36:45.215Z,72.84
2023-03-04T16:40:20.211Z,72.88
2023-03-04T16:44:12.784Z,72.95
2023-03-04T16:51:49.002Z,73.65
2023-03-04T16:55:00.389Z,73.89
2023-03-04T16:58:03.828Z,73.53
2023-03-04T17:01:14.528Z,73.55
2023-03-04T17:04:17.560Z,73.74
2023-03-04T17:07:20.563Z,73.81
2023-03-04T17:10:24.816Z,73.72
2023-03-04T17:13:32.301Z,74.19
2023-03-04T17:16:36.220Z,73.85
2023-03-04T17:19:45.250Z,74.41
2023-03-04T17:23:21.029Z,74.44
2023-03-04T17:26:25.803Z,74.24
2023-03-04T17:29:30.941Z,74.16
2023-03-04T17:32:56.227Z,74.26
2023-03-04T17:36:03.334Z,74.08
2023-03-04T17:39:11.936Z,74.61
2023-03-04T17:42:16.930Z,74.41
2023-03-04T17:45:30.191Z,74.42
2023-03-04T17:48:41.669Z,74.54
2023-03-04T17:52:17.590Z,74.38
2023-03-04T17:55:23.408Z,74.14
2023-03-04T17:58:48.815Z,74.48
2023-03-04T18:02:16.365Z,74.70
2023-03-04T18:05:24.652Z,74.55
2023-03-04T18:08:53.396Z,74.34
2023-03-04T18:12:19.944Z,74.37
2023-03-04T18:15:25.467Z,74.11
2023-03-04T18:18:31.545Z,73.89
2023-03-04T18:21:36.200Z,73.72
2023-03-04T18:24:42.254Z,73.99
2023-03-04T18:27:47.356Z,74.09
2023-03-04T18:30:51.892Z,73.96
2023-03-04T18:33:55.706Z,74.23
2023-03-04T18:36:59.306Z,74.48
2023-03-04T18:40:04.662Z,74.05
2023-03-04T18:43:10.737Z,73.99
2023-03-04T18:46:40.317Z,73.98
2023-03-04T18:49:46.125Z,73.74
2023-03-04T18:52:52.823Z,73.62
2023-03-04T18:56:03.249Z,73.83
2023-03-04T18:59:25.284Z,73.43
2023-03-04T19:02:52.358Z,73.67
2023-03-04T19:05:55.646Z,73.80
2023-03-04T19:08:59.244Z,73.81
2023-03-04T19:12:06.540Z,73.69
2023-03-04T19:15:10.419Z,73.84
2023-03-04T19:18:13.482Z,74.00
2023-03-04T19:21:18.158Z,74.15
2023-03-04T19:24:21.402Z,73.95
2023-03-04T19:27:25.026Z,74.31
2023-03-04T19:30:28.840Z,73.84
2023-03-04T19:33:32.839Z,73.84
2023-03-04T19:36:37.523Z,73.99
2023-03-04T19:39:43.631Z,74.21
2023-03-04T19:42:47.504Z,74.37
2023-03-04T19:45:56.221Z,74.36
2023-03-04T19:49:03.504Z,74.83
2023-03-04T19:52:09.303Z,74.90
2023-03-04T19:55:16.666Z,75.57
2023-03-04T19:58:21.501Z,75.24
2023-03-04T20:01:46.099Z,75.28
2023-03-04T20:05:31.953Z,75.62
2023-03-04T20:09:49.892Z,75.50
2023-03-04T20:13:58.083Z,76.02
2023-03-04T20:18:41.886Z,76.11
2023-03-04T20:22:17.978Z,76.57
2023-03-04T20:34:30.894Z,77.20
2023-03-04T20:38:08.137Z,76.98
2023-03-04T20:42:07.058Z,76.88
2023-03-04T20:46:01.451Z,77.05
2023-03-04T20:50:05.364Z,76.82
2023-03-04T20:57:37.185Z,76.84
2023-03-04T21:01:26.462Z,76.56
2023-03-04T21:05:19.050Z,77.05
2023-03-04T21:12:17.906Z,76.67
2023-03-04T21:15:44.971Z,76.46
2023-03-04T21:27:02.888Z,76.42
2023-03-04T21:30:29.857Z,76.54
2023-03-04T21:34:12.877Z,76.56
2023-03-04T21:37:53.490Z,76.70
2023-03-04T21:41:33.865Z,76.74
2023-03-04T21:48:52.082Z,76.78
2023-03-04T22:03:10.383Z,76.83
2023-03-04T22:10:35.432Z,77.15
2023-03-04T22:14:15.913Z,76.91
2023-03-04T22:18:08.463Z,76.96
2023-03-04T22:21:50.852Z,77.08
2023-03-04T22:25:59.542Z,76.89
2023-03-04T22:29:34.841Z,77.44
2023-03-04T22:36:44.095Z,77.40
2023-03-04T22:48:53.686Z,77.68
2023-03-04T22:52:34.200Z,77.39
2023-03-04T22:56:28.360Z,77.61
2023-03-04T23:00:14.614Z,77.53
2023-03-04T23:04:00.687Z,78.00
2023-03-04T23:07:39.160Z,78.13
2023-03-04T23:11:26.725Z,77.90
2023-03-04T23:15:07.175Z,78.00
2023-03-04T23:18:39.179Z,78.26
2023-03-04T23:22:30.149Z,78.07
2023-03-04T23:26:10.227Z,78.04
2023-03-04T23:29:51.124Z,77.80
2023-03-04T23:33:44.566Z,77.93
2023-03-04T23:41:01.106Z,77.66
2023-03-04T23:44:43.151Z,77.78
2023-03-04T23:48:38.925Z,77.47
2023-03-04T23:52:45.445Z,77.68
2023-03-04T23:59:57.116Z,78.03
